createdAt,value
2023-10-07T00:01:35.232Z,74.76
2023-10-07T00:04:40.076Z,74.82
2023-10-07T00:07:45.410Z,74.79
2023-10-07T00:10:51.186Z,74.73
2023-10-07T00:13:57.155Z,74.65
2023-10-07T00:17:07.198Z,74.58
2023-10-07T00:20:12.343Z,74.78
2023-10-07T00:23:22.007Z,74.71
2023-10-07T00:26:27.936Z,74.78
2023-10-07T00:29:41.214Z,74.75
2023-10-07T00:32:46.714Z,74.68
2023-10-07T00:35:51.483Z,74.56
2023-10-07T00:38:55.699Z,74.61
2023-10-07T00:42:00.446Z,74.75
2023-10-07T00:45:14.702Z,74.82
2023-10-07T00:48:18.653Z,74.75
2023-10-07T00:51:34.768Z,74.69
2023-10-07T00:54:51.020Z,74.69
2023-10-07T00:58:05.773Z,74.77
2023-10-07T01:01:11.232Z,74.77
2023-10-07T01:04:17.407Z,74.66
2023-10-07T01:07:21.605Z,74.76
2023-10-07T01:10:29.236Z,74.77
2023-10-07T01:13:34.316Z,74.88
2023-10-07T01:16:45.403Z,74.80
2023-10-07T01:19:54.659Z,74.61
2023-10-07T01:23:05.629Z,74.76
2023-10-07T01:26:17.099Z,74.93
2023-10-07T01:29:22.247Z,74.66
2023-10-07T01:32:33.053Z,74.66
2023-10-07T01:35:40.860Z,74.70
2023-10-07T01:38:46.322Z,74.73
2023-10-07T01:41:50.820Z,74.54
2023-10-07T01:44:59.023Z,74.57
2023-10-07T01:48:08.704Z,74.51
2023-10-07T01:51:15.965Z,74.54
2023-10-07T01:54:21.192Z,74.64
2023-10-07T01:57:25.137Z,74.58
2023-10-07T02:00:44.858Z,74.55
2023-10-07T02:03:48.995Z,74.60
2023-10-07T02:06:53.402Z,74.47
2023-10-07T02:09:59.280Z,74.56
2023-10-07T02:13:03.866Z,74.53
2023-10-07T02:16:09.365Z,74.55
2023-10-07T02:19:16.217Z,74.52
2023-10-07T02:22:23.845Z,74.41
2023-10-07T02:25:30.778Z,74.65
2023-10-07T02:28:35.685Z,74.52
2023-10-07T02:31:44.854Z,74.54
2023-10-07T02:34:57.577Z,74.50
2023-10-07T02:38:04.770Z,74.53
2023-10-07T02:41:17.943Z,74.64
2023-10-07T02:44:28.913Z,74.48
2023-10-07T02:47:33.858Z,74.32
2023-10-07T02:50:41.045Z,74.40
2023-10-07T02:53:44.989Z,74.40
2023-10-07T02:56:56.044Z,74.40
2023-10-07T03:00:15.210Z,74.51
2023-10-07T03:03:34.517Z,74.62
2023-10-07T03:06:39.159Z,74.61
2023-10-07T03:09:53.023Z,74.48
2023-10-07T03:12:59.004Z,74.56
2023-10-07T03:16:29.272Z,74.59
2023-10-07T03:19:49.208Z,74.65
2023-10-07T03:23:11.683Z,74.61
2023-10-07T03:26:18.740Z,74.76
2023-10-07T03:29:32.246Z,74.83
2023-10-07T03:32:55.937Z,74.80
2023-10-07T03:36:15.737Z,74.84
2023-10-07T03:39:27.561Z,74.73
2023-10-07T03:42:31.844Z,74.75
2023-10-07T03:45:37.406Z,74.80
2023-10-07T03:48:42.274Z,74.63
2023-10-07T03:51:49.373Z,74.48
2023-10-07T03:54:55.202Z,74.51
2023-10-07T03:57:59.143Z,74.65
2023-10-07T04:01:13.098Z,74.73
2023-10-07T04:04:17.361Z,74.74
2023-10-07T04:07:21.321Z,74.58
2023-10-07T04:10:32.897Z,74.54
2023-10-07T04:13:38.116Z,74.59
2023-10-07T04:16:43.769Z,74.51
2023-10-07T04:19:54.096Z,74.57
2023-10-07T04:23:02.285Z,74.54
2023-10-07T04:26:12.940Z,74.40
2023-10-07T04:29:17.201Z,74.28
2023-10-07T04:32:23.571Z,74.15
2023-10-07T04:35:32.259Z,73.97
2023-10-07T04:38:53.934Z,73.72
2023-10-07T04:42:00.720Z,73.69
2023-10-07T04:45:22.521Z,73.50
2023-10-07T04:48:32.965Z,73.34
2023-10-07T04:51:49.226Z,73.30
2023-10-07T04:54:54.126Z,73.29
2023-10-07T04:58:01.009Z,73.15
2023-10-07T05:01:23.600Z,73.16
2023-10-07T05:04:29.755Z,72.97
2023-10-07T05:07:33.723Z,73.11
2023-10-07T05:10:40.037Z,73.00
2023-10-07T05:13:46.146Z,72.96
2023-10-07T05:16:50.562Z,73.07
2023-10-07T05:19:54.693Z,72.92
2023-10-07T05:23:01.893Z,72.79
2023-10-07T05:26:10.465Z,72.80
2023-10-07T05:29:16.309Z,72.73
2023-10-07T05:32:20.391Z,72.65
2023-10-07T05:35:24.636Z,72.77
2023-10-07T05:38:28.714Z,72.88
2023-10-07T05:41:33.476Z,72.95
2023-10-07T05:44:39.144Z,72.88
2023-10-07T05:47:46.507Z,72.99
2023-10-07T05:50:50.507Z,72.92
2023-10-07T05:53:54.496Z,72.68
2023-10-07T05:57:01.927Z,72.45
2023-10-07T06:00:11.139Z,72.56
2023-10-07T06:03:15.155Z,72.81
2023-10-07T06:06:19.098Z,72.85
2023-10-07T06:09:23.649Z,72.68
2023-10-07T06:12:29.580Z,72.43
2023-10-07T06:15:35.347Z,72.38
2023-10-07T06:18:40.742Z,72.34
2023-10-07T06:21:52.432Z,72.47
2023-10-07T06:25:02.301Z,72.51
2023-10-07T06:28:07.031Z,72.09
2023-10-07T06:31:14.264Z,71.97
2023-10-07T06:34:26.854Z,71.79
2023-10-07T06:37:31.307Z,71.48
2023-10-07T06:40:37.030Z,71.39
2023-10-07T06:43:43.876Z,71.38
2023-10-07T06:46:49.017Z,71.19
2023-10-07T06:49:57.403Z,70.99
2023-10-07T06:53:01.426Z,70.98
2023-10-07T06:56:05.635Z,70.75
2023-10-07T06:59:12.148Z,70.48
2023-10-07T07:02:20.223Z,70.46
2023-10-07T07:05:25.478Z,70.25
2023-10-07T07:08:29.449Z,70.20
2023-10-07T07:11:35.215Z,69.99
2023-10-07T07:14:43.225Z,69.88
2023-10-07T07:17:47.246Z,69.61
2023-10-07T07:20:56.279Z,69.55
2023-10-07T07:24:01.390Z,69.38
2023-10-07T07:27:05.360Z,69.33
2023-10-07T07:30:18.644Z,69.24
2023-10-07T07:33:29.954Z,69.26
2023-10-07T07:36:40.567Z,69.20
2023-10-07T07:39:49.011Z,69.11
2023-10-07T07:42:56.643Z,69.11
2023-10-07T07:46:30.566Z,69.03
2023-10-07T07:49:40.196Z,69.15
2023-10-07T07:52:44.189Z,69.11
2023-10-07T07:55:48.408Z,68.99
2023-10-07T07:58:54.217Z,68.84
2023-10-07T08:02:03.730Z,68.88
2023-10-07T08:05:09.377Z,69.03
2023-10-07T08:08:26.076Z,68.83
2023-10-07T08:11:36.422Z,68.71
2023-10-07T08:14:40.431Z,68.62
2023-10-07T08:17:46.316Z,68.61
2023-10-07T08:20:50.391Z,68.73
2023-10-07T08:23:54.335Z,68.49
2023-10-07T08:27:01.094Z,68.35
2023-10-07T08:30:08.152Z,68.14
2023-10-07T08:33:13.850Z,68.18
2023-10-07T08:36:19.052Z,68.06
2023-10-07T08:39:28.562Z,68.03
2023-10-07T08:42:33.341Z,67.91
2023-10-07T08:45:40.692Z,67.92
2023-10-07T08:48:51.038Z,67.84
2023-10-07T08:51:55.942Z,67.85
2023-10-07T08:55:01.408Z,67.59
2023-10-07T08:58:06.649Z,67.70
2023-10-07T09:01:18.527Z,67.66
2023-10-07T09:04:23.262Z,67.57
2023-10-07T09:07:32.552Z,67.64
2023-10-07T09:10:38.217Z,67.49
2023-10-07T09:13:43.795Z,67.54
2023-10-07T09:16:50.921Z,67.48
2023-10-07T09:20:00.045Z,67.47
2023-10-07T09:23:08.547Z,67.35
2023-10-07T09:26:23.511Z,67.39
2023-10-07T09:29:30.418Z,67.21
2023-10-07T09:32:34.728Z,67.33
2023-10-07T09:35:39.133Z,67.21
2023-10-07T09:38:43.941Z,67.26
2023-10-07T09:42:04.777Z,67.07
2023-10-07T09:45:18.820Z,67.05
2023-10-07T09:48:31.192Z,67.00
2023-10-07T09:51:42.888Z,66.83
2023-10-07T09:55:20.360Z,66.77
2023-10-07T09:58:38.052Z,66.79
2023-10-07T10:01:55.470Z,66.62
2023-10-07T10:05:13.596Z,66.58
2023-10-07T10:08:29.126Z,66.23
2023-10-07T10:11:45.389Z,65.90
2023-10-07T10:15:19.174Z,65.77
2023-10-07T10:18:40.340Z,65.89
2023-10-07T10:21:45.177Z,65.97
2023-10-07T10:24:49.079Z,65.72
2023-10-07T10:28:00.001Z,65.55
2023-10-07T10:31:08.433Z,65.45
2023-10-07T10:34:16.167Z,65.51
2023-10-07T10:37:21.751Z,65.22
2023-10-07T10:40:32.727Z,65.02
2023-10-07T10:43:36.687Z,64.90
2023-10-07T10:46:47.472Z,65.06
2023-10-07T10:49:56.346Z,64.82
2023-10-07T10:53:01.619Z,64.66
2023-10-07T10:56:07.073Z,64.70
2023-10-07T10:59:11.133Z,64.36
2023-10-07T11:02:18.925Z,64.34
2023-10-07T11:05:23.752Z,64.15
2023-10-07T11:08:28.210Z,64.04
2023-10-07T11:11:32.499Z,63.85
2023-10-07T11:14:37.042Z,63.75
2023-10-07T11:17:54.153Z,63.30
2023-10-07T11:20:58.134Z,63.09
2023-10-07T11:24:02.500Z,62.92
2023-10-07T11:27:10.033Z,62.56
2023-10-07T11:30:16.317Z,62.47
2023-10-07T11:33:21.291Z,62.48
2023-10-07T11:36:25.806Z,62.08
2023-10-07T11:39:31.166Z,62.20
2023-10-07T11:42:35.407Z,62.11
2023-10-07T11:45:41.367Z,62.16
2023-10-07T11:48:46.150Z,61.91
2023-10-07T11:51:50.256Z,61.92
2023-10-07T11:54:54.272Z,61.91
2023-10-07T11:57:59.983Z,61.55
2023-10-07T12:01:05.013Z,61.38
2023-10-07T12:04:10.009Z,61.47
2023-10-07T12:07:15.691Z,61.37
2023-10-07T12:10:21.145Z,61.17
2023-10-07T12:13:25.093Z,60.82
2023-10-07T12:16:30.452Z,60.68
2023-10-07T12:19:35.659Z,60.47
2023-10-07T12:22:40.269Z,60.31
2023-10-07T12:25:44.209Z,60.19
2023-10-07T12:28:50.381Z,60.11
2023-10-07T12:31:54.544Z,59.84
2023-10-07T12:34:59.881Z,59.81
2023-10-07T12:38:03.952Z,59.65
2023-10-07T12:41:08.933Z,59.57
2023-10-07T12:44:13.310Z,59.39
2023-10-07T12:47:18.237Z,59.30
2023-10-07T12:50:25.414Z,59.14
2023-10-07T12:53:29.816Z,59.03
2023-10-07T12:56:34.966Z,58.76
2023-10-07T12:59:39.246Z,58.90
2023-10-07T13:02:45.492Z,58.74
2023-10-07T13:05:49.659Z,58.64
2023-10-07T13:08:55.089Z,58.34
2023-10-07T13:11:59.913Z,58.55
2023-10-07T13:15:04.496Z,58.52
2023-10-07T13:18:10.481Z,58.26
2023-10-07T13:21:17.796Z,58.12
2023-10-07T13:24:21.801Z,57.96
2023-10-07T13:27:25.710Z,57.86
2023-10-07T13:30:31.528Z,57.56
2023-10-07T13:33:37.274Z,57.53
2023-10-07T13:36:43.666Z,57.60
2023-10-07T13:39:47.660Z,57.46
2023-10-07T13:42:52.691Z,57.37
2023-10-07T13:45:56.636Z,57.30
2023-10-07T13:49:01.430Z,57.08
2023-10-07T13:52:07.104Z,56.91
2023-10-07T13:55:23.326Z,56.94
2023-10-07T13:58:27.254Z,56.79
2023-10-07T14:01:31.310Z,56.84
2023-10-07T14:04:36.024Z,56.81
2023-10-07T14:07:40.888Z,56.84
2023-10-07T14:10:46.606Z,56.88
2023-10-07T14:13:50.603Z,56.79
2023-10-07T14:17:00.189Z,56.73
2023-10-07T14:20:07.502Z,56.87
2023-10-07T14:23:15.594Z,56.72
2023-10-07T14:26:20.921Z,56.86
2023-10-07T14:29:27.876Z,56.76
2023-10-07T14:32:32.396Z,56.78
2023-10-07T14:35:39.212Z,56.73
2023-10-07T14:38:43.657Z,56.85
2023-10-07T14:41:47.563Z,56.76
2023-10-07T14:44:52.596Z,56.63
2023-10-07T14:47:56.652Z,56.80
2023-10-07T14:51:05.450Z,56.82
2023-10-07T14:54:09.607Z,56.85
2023-10-07T14:57:18.936Z,57.00
2023-10-07T15:00:23.299Z,56.97
2023-10-07T15:03:29.066Z,56.89
2023-10-07T15:06:34.897Z,56.91
2023-10-07T15:09:38.829Z,56.85
2023-10-07T15:12:43.578Z,56.82
2023-10-07T15:15:48.412Z,56.83
2023-10-07T15:18:53.956Z,56.92
2023-10-07T15:21:58.515Z,57.06
2023-10-07T15:25:02.449Z,57.02
2023-10-07T15:28:07.454Z,57.14
2023-10-07T15:31:12.364Z,57.42
2023-10-07T15:34:16.351Z,57.23
2023-10-07T15:37:20.333Z,57.29
2023-10-07T15:40:24.403Z,57.34
2023-10-07T15:43:28.362Z,57.49
2023-10-07T15:46:32.989Z,57.57
2023-10-07T15:49:37.409Z,57.74
2023-10-07T15:52:41.390Z,57.70
2023-10-07T15:55:45.421Z,57.71
2023-10-07T15:58:49.845Z,57.77
2023-10-07T16:01:53.986Z,57.88
2023-10-07T16:04:58.261Z,58.04
2023-10-07T16:08:02.402Z,58.08
2023-10-07T16:11:07.645Z,58.29
2023-10-07T16:14:11.841Z,58.34
2023-10-07T16:17:15.886Z,58.23
2023-10-07T16:20:20.553Z,58.58
2023-10-07T16:23:24.838Z,58.54
2023-10-07T16:26:28.957Z,58.62
2023-10-07T16:29:32.913Z,58.86
2023-10-07T16:32:38.538Z,58.77
2023-10-07T16:35:42.584Z,58.94
2023-10-07T16:38:46.652Z,58.98
2023-10-07T16:41:54.534Z,59.16
2023-10-07T16:44:58.958Z,59.21
2023-10-07T16:48:04.840Z,59.34
2023-10-07T16:51:11.417Z,59.36
2023-10-07T16:54:15.500Z,59.47
2023-10-07T16:57:19.459Z,59.73
2023-10-07T17:00:23.837Z,59.73
2023-10-07T17:03:28.398Z,59.65
2023-10-07T17:06:32.491Z,59.89
2023-10-07T17:09:36.466Z,59.75
2023-10-07T17:12:40.399Z,59.93
2023-10-07T17:15:45.027Z,60.04
2023-10-07T17:18:51.506Z,60.20
2023-10-07T17:21:56.250Z,60.22
2023-10-07T17:25:00.361Z,60.22
2023-10-07T17:28:05.005Z,60.15
2023-10-07T17:31:12.194Z,60.25
2023-10-07T17:34:16.304Z,60.46
2023-10-07T17:37:20.229Z,60.59
2023-10-07T17:40:24.352Z,60.58
2023-10-07T17:43:28.530Z,60.62
2023-10-07T17:46:32.432Z,60.59
2023-10-07T17:49:36.360Z,60.60
2023-10-07T17:52:40.777Z,60.64
2023-10-07T17:55:46.660Z,60.66
2023-10-07T17:58:51.279Z,60.84
2023-10-07T18:01:55.244Z,60.92
2023-10-07T18:05:00.158Z,60.92
2023-10-07T18:08:04.841Z,61.31
2023-10-07T18:11:08.869Z,61.55
2023-10-07T18:14:13.336Z,61.72
2023-10-07T18:17:17.367Z,61.81
2023-10-07T18:20:21.914Z,62.12
2023-10-07T18:23:27.091Z,62.34
2023-10-07T18:26:31.184Z,62.64
2023-10-07T18:29:35.262Z,63.04
2023-10-07T18:32:39.990Z,63.08
2023-10-07T18:35:44.188Z,63.25
2023-10-07T18:38:48.181Z,63.46
2023-10-07T18:41:52.784Z,63.73
2023-10-07T18:44:56.738Z,64.11
2023-10-07T18:48:00.793Z,64.26
2023-10-07T18:51:08.280Z,64.75
2023-10-07T18:54:12.422Z,64.89
2023-10-07T18:57:16.479Z,65.07
2023-10-07T19:00:20.930Z,65.39
2023-10-07T19:03:24.974Z,65.60
2023-10-07T19:06:29.946Z,65.91
2023-10-07T19:09:34.984Z,66.25
2023-10-07T19:12:39.363Z,66.35
2023-10-07T19:15:46.817Z,66.55
2023-10-07T19:18:51.516Z,66.90
2023-10-07T19:21:57.860Z,66.96
2023-10-07T19:25:01.783Z,67.04
2023-10-07T19:28:06.819Z,67.21
2023-10-07T19:31:14.054Z,67.46
2023-10-07T19:34:18.379Z,67.81
2023-10-07T19:37:22.249Z,67.85
2023-10-07T19:40:26.220Z,68.09
2023-10-07T19:43:30.110Z,68.19
2023-10-07T19:46:34.005Z,68.43
2023-10-07T19:49:38.736Z,68.59
2023-10-07T19:52:42.802Z,68.86
2023-10-07T19:55:46.723Z,69.17
2023-10-07T19:58:51.019Z,69.49
2023-10-07T20:01:56.233Z,69.45
2023-10-07T20:05:00.308Z,69.73
2023-10-07T20:08:04.905Z,69.87
2023-10-07T20:11:10.564Z,70.21
2023-10-07T20:14:16.341Z,70.32
2023-10-07T20:17:20.500Z,70.45
2023-10-07T20:20:24.757Z,70.53
2023-10-07T20:23:29.734Z,70.82
2023-10-07T20:26:33.733Z,71.06
2023-10-07T20:29:37.835Z,71.21
2023-10-07T20:32:42.007Z,71.25
2023-10-07T20:35:46.075Z,71.43
2023-10-07T20:38:52.575Z,71.62
2023-10-07T20:41:56.617Z,71.74
2023-10-07T20:45:01.104Z,71.68
2023-10-07T20:48:06.181Z,72.06
2023-10-07T20:51:11.815Z,72.12
2023-10-07T20:54:16.168Z,72.33
2023-10-07T20:57:20.243Z,72.28
2023-10-07T21:00:24.621Z,72.42
2023-10-07T21:03:28.988Z,72.56
2023-10-07T21:06:33.276Z,72.71
2023-10-07T21:09:37.307Z,72.70
2023-10-07T21:12:41.181Z,72.90
2023-10-07T21:15:45.208Z,72.88
2023-10-07T21:18:49.155Z,73.11
2023-10-07T21:21:53.270Z,73.22
2023-10-07T21:24:57.981Z,73.49
2023-10-07T21:28:01.929Z,73.64
2023-10-07T21:31:06.380Z,73.74
2023-10-07T21:34:11.390Z,73.83
2023-10-07T21:37:15.520Z,73.80
2023-10-07T21:40:19.494Z,73.79
2023-10-07T21:43:23.468Z,73.97
2023-10-07T21:46:27.479Z,74.16
2023-10-07T21:49:31.461Z,74.31
2023-10-07T21:52:35.440Z,74.50
2023-10-07T21:55:39.538Z,74.50
2023-10-07T21:58:43.986Z,74.38
2023-10-07T22:01:47.976Z,74.42
2023-10-07T22:04:52.043Z,74.48
2023-10-07T22:07:57.614Z,74.39
2023-10-07T22:11:01.868Z,74.53
2023-10-07T22:14:06.546Z,74.56
2023-10-07T22:17:10.618Z,74.65
2023-10-07T22:20:15.970Z,74.55
2023-10-07T22:23:22.435Z,74.62
2023-10-07T22:26:26.732Z,74.61
2023-10-07T22:29:33.112Z,74.64
2023-10-07T22:32:38.214Z,74.64
2023-10-07T22:35:42.721Z,74.71
2023-10-07T22:38:54.773Z,74.85
2023-10-07T22:42:01.590Z,74.81
2023-10-07T22:45:12.344Z,74.88
2023-10-07T22:48:28.857Z,75.07
2023-10-07T22:51:33.579Z,75.11
2023-10-07T22:54:44.577Z,74.93
2023-10-07T22:57:48.445Z,74.76
2023-10-07T23:00:52.483Z,74.70
2023-10-07T23:04:10.921Z,74.79
2023-10-07T23:07:24.437Z,74.86
2023-10-07T23:10:36.572Z,74.79
2023-10-07T23:13:40.458Z,74.86
2023-10-07T23:16:47.774Z,74.70
2023-10-07T23:19:52.085Z,74.60
2023-10-07T23:22:57.835Z,74.74
2023-10-07T23:26:02.007Z,74.84
2023-10-07T23:29:07.539Z,74.98
2023-10-07T23:32:16.406Z,75.06
2023-10-07T23:35:24.656Z,75.02
2023-10-07T23:38:28.769Z,74.90
2023-10-07T23:41:32.895Z,74.92
2023-10-07T23:44:37.685Z,74.94
2023-10-07T23:47:42.401Z,74.94
2023-10-07T23:50:48.708Z,74.87
2023-10-07T23:53:53.358Z,74.85
2023-10-07T23:57:01.897Z,74.80
